Callender, Iowa
Current Conditions -  °F | °C
As of 12:15 PM on Thursday 23 Oct 2014 (Local Time) from KFOD Reporting Station
Few Clouds Few Clouds  
Wind Chill: 63°   Ceiling: Unl
Heat Index: 63°   Visibility: 10mi
Dew Point: 54°   Wind: 9mph
Humidity: 72%   Direction: 290°WNW
Pressure: 30.06"   Gusts: NA
Location:  42.36°N, 94.3°W
Report Text: KFOD 231715Z AUTO 29008KT 10SM FEW015 17/12 A3006 RMK AO1
Loading
Personal Weather Stations






























Interactive Weather Map
Tropical Storm Tracking
New forecast layout! Learn more

10-Day Weather Forecast

Advertisements
Track Severe Weather on mobile